sensor_id;sensor_type;location;lat;lon;timestamp;temperature;humidity
2663;DHT22;49701;48.072;7.800;2022-10-19T00:01:20;13.90;99.90
2663;DHT22;49701;48.072;7.800;2022-10-19T00:03:47;13.90;99.90
2663;DHT22;49701;48.072;7.800;2022-10-19T00:08:38;13.80;99.90
2663;DHT22;49701;48.072;7.800;2022-10-19T00:11:04;13.80;99.90
2663;DHT22;49701;48.072;7.800;2022-10-19T00:13:29;13.80;99.90
2663;DHT22;49701;48.072;7.800;2022-10-19T00:15:55;13.80;99.90
2663;DHT22;49701;48.072;7.800;2022-10-19T00:18:20;13.80;99.90
2663;DHT22;49701;48.072;7.800;2022-10-19T00:20:46;13.70;99.90
2663;DHT22;49701;48.072;7.800;2022-10-19T00:23:11;13.70;99.90
2663;DHT22;49701;48.072;7.800;2022-10-19T00:25:37;13.70;99.90
2663;DHT22;49701;48.072;7.800;2022-10-19T00:28:03;13.60;99.90
2663;DHT22;49701;48.072;7.800;2022-10-19T00:30:28;13.60;99.90
2663;DHT22;49701;48.072;7.800;2022-10-19T00:32:54;13.50;99.90
2663;DHT22;49701;48.072;7.800;2022-10-19T00:35:19;13.40;99.90
2663;DHT22;49701;48.072;7.800;2022-10-19T00:37:45;13.40;99.90
2663;DHT22;49701;48.072;7.800;2022-10-19T00:40:10;13.40;99.90
2663;DHT22;49701;48.072;7.800;2022-10-19T00:42:36;13.30;99.90
2663;DHT22;49701;48.072;7.800;2022-10-19T00:45:04;13.30;99.90
2663;DHT22;49701;48.072;7.800;2022-10-19T00:47:30;13.20;99.90
2663;DHT22;49701;48.072;7.800;2022-10-19T00:49:56;13.20;99.90
2663;DHT22;49701;48.072;7.800;2022-10-19T00:52:22;13.20;99.90
2663;DHT22;49701;48.072;7.800;2022-10-19T00:54:48;13.10;99.90
2663;DHT22;49701;48.072;7.800;2022-10-19T00:57:14;13.10;99.90
2663;DHT22;49701;48.072;7.800;2022-10-19T00:59:40;13.10;99.90
2663;DHT22;49701;48.072;7.800;2022-10-19T01:02:06;13.00;99.90
2663;DHT22;49701;48.072;7.800;2022-10-19T01:04:33;13.00;99.90
2663;DHT22;49701;48.072;7.800;2022-10-19T01:07:01;12.90;99.90
2663;DHT22;49701;48.072;7.800;2022-10-19T01:09:27;12.90;99.90
2663;DHT22;49701;48.072;7.800;2022-10-19T01:22:08;12.90;99.90
2663;DHT22;49701;48.072;7.800;2022-10-19T01:24:42;12.90;99.90
2663;DHT22;49701;48.072;7.800;2022-10-19T01:29:40;12.90;99.90
2663;DHT22;49701;48.072;7.800;2022-10-19T01:32:10;12.90;99.90
2663;DHT22;49701;48.072;7.800;2022-10-19T01:39:58;13.00;99.90
2663;DHT22;49701;48.072;7.800;2022-10-19T01:42:34;13.00;99.90
2663;DHT22;49701;48.072;7.800;2022-10-19T01:45:04;13.10;99.90
2663;DHT22;49701;48.072;7.800;2022-10-19T01:47:37;13.10;99.90
2663;DHT22;49701;48.072;7.800;2022-10-19T01:52:36;13.10;99.90
2663;DHT22;49701;48.072;7.800;2022-10-19T01:55:05;13.20;99.90
2663;DHT22;49701;48.072;7.800;2022-10-19T01:57:33;13.20;99.90
2663;DHT22;49701;48.072;7.800;2022-10-19T02:00:00;13.20;99.90
2663;DHT22;49701;48.072;7.800;2022-10-19T02:02:32;13.20;99.90
2663;DHT22;49701;48.072;7.800;2022-10-19T02:04:59;13.30;99.90
2663;DHT22;49701;48.072;7.800;2022-10-19T02:07:25;13.30;99.90
2663;DHT22;49701;48.072;7.800;2022-10-19T02:09:51;13.30;99.90
2663;DHT22;49701;48.072;7.800;2022-10-19T02:12:17;13.30;99.90
2663;DHT22;49701;48.072;7.800;2022-10-19T02:14:43;13.30;99.90
2663;DHT22;49701;48.072;7.800;2022-10-19T02:17:12;13.30;99.90
2663;DHT22;49701;48.072;7.800;2022-10-19T02:19:38;13.40;99.90
2663;DHT22;49701;48.072;7.800;2022-10-19T02:22:04;13.40;99.90
2663;DHT22;49701;48.072;7.800;2022-10-19T02:24:30;13.40;99.90
2663;DHT22;49701;48.072;7.800;2022-10-19T02:26:55;13.40;99.90
2663;DHT22;49701;48.072;7.800;2022-10-19T02:29:21;13.40;99.90
2663;DHT22;49701;48.072;7.800;2022-10-19T02:31:47;13.50;99.90
2663;DHT22;49701;48.072;7.800;2022-10-19T02:34:13;13.50;99.90
2663;DHT22;49701;48.072;7.800;2022-10-19T02:36:38;13.50;99.90
2663;DHT22;49701;48.072;7.800;2022-10-19T02:39:05;13.50;99.90
2663;DHT22;49701;48.072;7.800;2022-10-19T02:41:38;13.60;99.90
2663;DHT22;49701;48.072;7.800;2022-10-19T02:46:57;13.70;99.90
2663;DHT22;49701;48.072;7.800;2022-10-19T02:49:25;13.70;99.90
2663;DHT22;49701;48.072;7.800;2022-10-19T02:51:58;13.80;99.90
2663;DHT22;49701;48.072;7.800;2022-10-19T02:54:24;13.80;99.90
2663;DHT22;49701;48.072;7.800;2022-10-19T02:56:50;13.80;99.90
2663;DHT22;49701;48.072;7.800;2022-10-19T02:59:16;13.90;99.90
2663;DHT22;49701;48.072;7.800;2022-10-19T03:01:41;13.90;99.90
2663;DHT22;49701;48.072;7.800;2022-10-19T03:04:06;14.00;99.90
2663;DHT22;49701;48.072;7.800;2022-10-19T03:06:32;14.00;99.90
2663;DHT22;49701;48.072;7.800;2022-10-19T03:08:57;14.00;99.90
2663;DHT22;49701;48.072;7.800;2022-10-19T03:11:23;14.10;99.90
2663;DHT22;49701;48.072;7.800;2022-10-19T03:13:48;14.10;99.90
2663;DHT22;49701;48.072;7.800;2022-10-19T03:16:14;14.20;99.90
2663;DHT22;49701;48.072;7.800;2022-10-19T03:18:39;14.20;99.90
2663;DHT22;49701;48.072;7.800;2022-10-19T03:21:06;14.20;99.90
2663;DHT22;49701;48.072;7.800;2022-10-19T03:23:31;14.20;99.90
2663;DHT22;49701;48.072;7.800;2022-10-19T03:25:57;14.20;99.90
2663;DHT22;49701;48.072;7.800;2022-10-19T03:28:22;14.20;99.90
2663;DHT22;49701;48.072;7.800;2022-10-19T03:30:48;14.20;99.90
2663;DHT22;49701;48.072;7.800;2022-10-19T03:33:13;14.20;99.90
2663;DHT22;49701;48.072;7.800;2022-10-19T03:35:39;14.30;99.90
2663;DHT22;49701;48.072;7.800;2022-10-19T03:38:04;14.20;99.90
2663;DHT22;49701;48.072;7.800;2022-10-19T03:40:30;14.30;99.90
2663;DHT22;49701;48.072;7.800;2022-10-19T03:42:55;14.20;99.90
2663;DHT22;49701;48.072;7.800;2022-10-19T03:45:21;14.20;99.90
2663;DHT22;49701;48.072;7.800;2022-10-19T03:47:50;14.20;99.90
2663;DHT22;49701;48.072;7.800;2022-10-19T03:50:16;14.20;99.90
2663;DHT22;49701;48.072;7.800;2022-10-19T03:52:42;14.30;99.90
2663;DHT22;49701;48.072;7.800;2022-10-19T03:55:08;14.20;99.90
2663;DHT22;49701;48.072;7.800;2022-10-19T03:57:34;14.20;99.90
2663;DHT22;49701;48.072;7.800;2022-10-19T04:00:00;14.20;99.90
2663;DHT22;49701;48.072;7.800;2022-10-19T04:02:25;14.20;99.90
2663;DHT22;49701;48.072;7.800;2022-10-19T04:04:51;14.20;99.90
2663;DHT22;49701;48.072;7.800;2022-10-19T04:07:16;14.20;99.90
2663;DHT22;49701;48.072;7.800;2022-10-19T04:09:42;14.20;99.90
2663;DHT22;49701;48.072;7.800;2022-10-19T04:12:07;14.20;99.90
2663;DHT22;49701;48.072;7.800;2022-10-19T04:14:33;14.20;99.90
2663;DHT22;49701;48.072;7.800;2022-10-19T04:16:58;14.10;99.90
2663;DHT22;49701;48.072;7.800;2022-10-19T04:19:24;14.10;99.90
2663;DHT22;49701;48.072;7.800;2022-10-19T04:21:49;14.10;99.90
2663;DHT22;49701;48.072;7.800;2022-10-19T04:24:16;14.10;99.90
2663;DHT22;49701;48.072;7.800;2022-10-19T04:26:46;14.10;99.90
2663;DHT22;49701;48.072;7.800;2022-10-19T04:29:12;14.10;99.90
2663;DHT22;49701;48.072;7.800;2022-10-19T04:31:38;14.10;99.90
2663;DHT22;49701;48.072;7.800;2022-10-19T04:34:04;14.10;99.90
2663;DHT22;49701;48.072;7.800;2022-10-19T04:36:29;14.10;99.90
2663;DHT22;49701;48.072;7.800;2022-10-19T04:38:55;14.10;99.90
2663;DHT22;49701;48.072;7.800;2022-10-19T04:41:20;14.20;99.90
2663;DHT22;49701;48.072;7.800;2022-10-19T04:43:46;14.20;99.90
2663;DHT22;49701;48.072;7.800;2022-10-19T04:46:13;14.20;99.90
2663;DHT22;49701;48.072;7.800;2022-10-19T04:48:39;14.20;99.90
2663;DHT22;49701;48.072;7.800;2022-10-19T04:51:05;14.20;99.90
2663;DHT22;49701;48.072;7.800;2022-10-19T04:53:31;14.20;99.90
2663;DHT22;49701;48.072;7.800;2022-10-19T04:55:56;14.20;99.90
2663;DHT22;49701;48.072;7.800;2022-10-19T04:58:22;14.20;99.90
2663;DHT22;49701;48.072;7.800;2022-10-19T05:00:47;14.20;99.90
2663;DHT22;49701;48.072;7.800;2022-10-19T05:03:13;14.20;99.90
2663;DHT22;49701;48.072;7.800;2022-10-19T05:05:38;14.10;99.90
2663;DHT22;49701;48.072;7.800;2022-10-19T05:08:04;14.20;99.90
2663;DHT22;49701;48.072;7.800;2022-10-19T05:10:29;14.20;99.90
2663;DHT22;49701;48.072;7.800;2022-10-19T05:12:55;14.20;99.90
2663;DHT22;49701;48.072;7.800;2022-10-19T05:15:20;14.20;99.90
2663;DHT22;49701;48.072;7.800;2022-10-19T05:17:46;14.20;99.90
2663;DHT22;49701;48.072;7.800;2022-10-19T05:20:11;14.20;99.90
2663;DHT22;49701;48.072;7.800;2022-10-19T05:22:37;14.30;99.90
2663;DHT22;49701;48.072;7.800;2022-10-19T05:25:03;14.40;99.90
2663;DHT22;49701;48.072;7.800;2022-10-19T05:27:28;14.40;99.90
2663;DHT22;49701;48.072;7.800;2022-10-19T05:29:54;14.50;99.90
2663;DHT22;49701;48.072;7.800;2022-10-19T05:32:19;14.50;99.90
2663;DHT22;49701;48.072;7.800;2022-10-19T05:34:45;14.50;99.90
2663;DHT22;49701;48.072;7.800;2022-10-19T05:37:10;14.50;99.90
2663;DHT22;49701;48.072;7.800;2022-10-19T05:39:36;14.60;99.90
2663;DHT22;49701;48.072;7.800;2022-10-19T05:42:01;14.60;99.90
2663;DHT22;49701;48.072;7.800;2022-10-19T05:44:26;14.50;99.90
2663;DHT22;49701;48.072;7.800;2022-10-19T05:46:52;14.50;99.90
2663;DHT22;49701;48.072;7.800;2022-10-19T05:49:18;14.50;99.90
2663;DHT22;49701;48.072;7.800;2022-10-19T05:51:44;14.60;99.90
2663;DHT22;49701;48.072;7.800;2022-10-19T05:54:10;14.60;99.90
2663;DHT22;49701;48.072;7.800;2022-10-19T05:56:36;14.60;99.90
2663;DHT22;49701;48.072;7.800;2022-10-19T05:59:02;14.60;99.90
2663;DHT22;49701;48.072;7.800;2022-10-19T06:01:28;14.60;99.90
2663;DHT22;49701;48.072;7.800;2022-10-19T06:03:55;14.50;99.90
2663;DHT22;49701;48.072;7.800;2022-10-19T06:06:21;14.50;99.90
2663;DHT22;49701;48.072;7.800;2022-10-19T06:08:47;14.50;99.90
2663;DHT22;49701;48.072;7.800;2022-10-19T06:11:22;14.50;99.90
2663;DHT22;49701;48.072;7.800;2022-10-19T06:13:48;14.50;99.90
2663;DHT22;49701;48.072;7.800;2022-10-19T06:16:17;14.50;99.90
2663;DHT22;49701;48.072;7.800;2022-10-19T06:18:43;14.60;99.90
2663;DHT22;49701;48.072;7.800;2022-10-19T06:21:10;14.50;99.90
2663;DHT22;49701;48.072;7.800;2022-10-19T06:23:36;14.60;99.90
2663;DHT22;49701;48.072;7.800;2022-10-19T06:26:02;14.60;99.90
2663;DHT22;49701;48.072;7.800;2022-10-19T06:28:28;14.60;99.90
2663;DHT22;49701;48.072;7.800;2022-10-19T06:30:53;14.60;99.90
2663;DHT22;49701;48.072;7.800;2022-10-19T06:33:21;14.60;99.90
2663;DHT22;49701;48.072;7.800;2022-10-19T06:35:46;14.60;99.90
2663;DHT22;49701;48.072;7.800;2022-10-19T06:38:12;14.60;99.90
2663;DHT22;49701;48.072;7.800;2022-10-19T06:40:38;14.60;99.90
2663;DHT22;49701;48.072;7.800;2022-10-19T06:43:03;14.60;99.90
2663;DHT22;49701;48.072;7.800;2022-10-19T06:45:29;14.60;99.90
2663;DHT22;49701;48.072;7.800;2022-10-19T06:47:54;14.70;99.90
2663;DHT22;49701;48.072;7.800;2022-10-19T06:50:20;14.60;99.90
2663;DHT22;49701;48.072;7.800;2022-10-19T06:52:45;14.60;99.90
2663;DHT22;49701;48.072;7.800;2022-10-19T06:55:11;14.60;99.90
2663;DHT22;49701;48.072;7.800;2022-10-19T06:57:36;14.70;99.90
2663;DHT22;49701;48.072;7.800;2022-10-19T07:00:03;14.70;99.90
2663;DHT22;49701;48.072;7.800;2022-10-19T07:02:29;14.70;99.90
2663;DHT22;49701;48.072;7.800;2022-10-19T07:04:54;14.70;99.90
2663;DHT22;49701;48.072;7.800;2022-10-19T07:07:19;14.70;99.90
2663;DHT22;49701;48.072;7.800;2022-10-19T07:09:46;14.70;99.90
2663;DHT22;49701;48.072;7.800;2022-10-19T07:12:12;14.70;99.90
2663;DHT22;49701;48.072;7.800;2022-10-19T07:14:37;14.60;99.90
2663;DHT22;49701;48.072;7.800;2022-10-19T07:17:06;14.60;99.90
2663;DHT22;49701;48.072;7.800;2022-10-19T07:19:32;14.50;99.90
2663;DHT22;49701;48.072;7.800;2022-10-19T07:21:58;14.50;99.90
2663;DHT22;49701;48.072;7.800;2022-10-19T07:24:24;14.50;99.90
2663;DHT22;49701;48.072;7.800;2022-10-19T07:26:49;14.50;99.90
2663;DHT22;49701;48.072;7.800;2022-10-19T07:29:15;14.60;99.90
2663;DHT22;49701;48.072;7.800;2022-10-19T07:31:40;14.60;99.90
2663;DHT22;49701;48.072;7.800;2022-10-19T07:34:06;14.60;99.90
2663;DHT22;49701;48.072;7.800;2022-10-19T07:36:32;14.50;99.90
2663;DHT22;49701;48.072;7.800;2022-10-19T07:38:59;14.50;99.90
2663;DHT22;49701;48.072;7.800;2022-10-19T07:41:25;14.60;99.90
2663;DHT22;49701;48.072;7.800;2022-10-19T07:43:51;14.70;99.90
2663;DHT22;49701;48.072;7.800;2022-10-19T07:46:18;14.80;99.90
2663;DHT22;49701;48.072;7.800;2022-10-19T07:48:44;14.90;99.90
2663;DHT22;49701;48.072;7.800;2022-10-19T07:51:10;14.90;99.90
2663;DHT22;49701;48.072;7.800;2022-10-19T07:53:36;15.00;99.90
2663;DHT22;49701;48.072;7.800;2022-10-19T07:56:03;15.00;99.90
2663;DHT22;49701;48.072;7.800;2022-10-19T07:58:28;15.10;99.90
2663;DHT22;49701;48.072;7.800;2022-10-19T08:00:58;15.10;99.90
2663;DHT22;49701;48.072;7.800;2022-10-19T08:03:23;15.30;99.90
2663;DHT22;49701;48.072;7.800;2022-10-19T08:05:49;15.40;99.90
2663;DHT22;49701;48.072;7.800;2022-10-19T08:08:14;15.50;99.90
2663;DHT22;49701;48.072;7.800;2022-10-19T08:10:40;15.60;99.90
2663;DHT22;49701;48.072;7.800;2022-10-19T08:13:05;15.60;99.90
2663;DHT22;49701;48.072;7.800;2022-10-19T08:15:31;15.50;99.90
2663;DHT22;49701;48.072;7.800;2022-10-19T08:17:57;15.50;99.90
2663;DHT22;49701;48.072;7.800;2022-10-19T08:20:23;15.60;99.90
2663;DHT22;49701;48.072;7.800;2022-10-19T08:22:49;15.70;99.90
2663;DHT22;49701;48.072;7.800;2022-10-19T08:25:14;15.70;99.90
2663;DHT22;49701;48.072;7.800;2022-10-19T08:27:40;15.70;99.90
2663;DHT22;49701;48.072;7.800;2022-10-19T08:30:05;15.70;99.90
2663;DHT22;49701;48.072;7.800;2022-10-19T08:32:31;15.70;99.90
2663;DHT22;49701;48.072;7.800;2022-10-19T08:34:56;15.70;99.90
2663;DHT22;49701;48.072;7.800;2022-10-19T08:37:22;15.70;99.90
2663;DHT22;49701;48.072;7.800;2022-10-19T08:39:47;15.70;99.90
2663;DHT22;49701;48.072;7.800;2022-10-19T08:42:15;15.70;99.90
2663;DHT22;49701;48.072;7.800;2022-10-19T08:45:03;15.70;99.90
2663;DHT22;49701;48.072;7.800;2022-10-19T08:47:54;15.60;99.90
2663;DHT22;49701;48.072;7.800;2022-10-19T08:50:22;15.70;99.90
2663;DHT22;49701;48.072;7.800;2022-10-19T08:52:50;15.80;99.90
2663;DHT22;49701;48.072;7.800;2022-10-19T08:55:19;15.90;99.90
2663;DHT22;49701;48.072;7.800;2022-10-19T09:02:44;16.00;99.90
2663;DHT22;49701;48.072;7.800;2022-10-19T09:05:15;16.00;99.90
2663;DHT22;49701;48.072;7.800;2022-10-19T09:07:44;16.10;99.90
2663;DHT22;49701;48.072;7.800;2022-10-19T09:15:12;16.10;99.90
2663;DHT22;49701;48.072;7.800;2022-10-19T09:17:38;16.10;99.90
2663;DHT22;49701;48.072;7.800;2022-10-19T09:22:38;16.20;99.90
2663;DHT22;49701;48.072;7.800;2022-10-19T09:25:39;16.10;99.90
2663;DHT22;49701;48.072;7.800;2022-10-19T09:27:59;16.10;99.90
2663;DHT22;49701;48.072;7.800;2022-10-19T09:30:26;16.20;99.90
2663;DHT22;49701;48.072;7.800;2022-10-19T09:33:00;16.20;99.90
2663;DHT22;49701;48.072;7.800;2022-10-19T09:35:27;16.10;99.90
2663;DHT22;49701;48.072;7.800;2022-10-19T09:37:54;16.10;99.90
2663;DHT22;49701;48.072;7.800;2022-10-19T09:40:21;16.10;99.90
2663;DHT22;49701;48.072;7.800;2022-10-19T09:42:47;16.10;99.90
2663;DHT22;49701;48.072;7.800;2022-10-19T09:45:35;16.10;99.90
2663;DHT22;49701;48.072;7.800;2022-10-19T09:48:05;16.10;99.90
2663;DHT22;49701;48.072;7.800;2022-10-19T09:50:35;16.10;99.90
2663;DHT22;49701;48.072;7.800;2022-10-19T09:53:10;16.00;99.90
2663;DHT22;49701;48.072;7.800;2022-10-19T09:55:43;16.00;99.90
2663;DHT22;49701;48.072;7.800;2022-10-19T09:58:18;16.00;99.90
2663;DHT22;49701;48.072;7.800;2022-10-19T10:00:50;16.00;99.90
2663;DHT22;49701;48.072;7.800;2022-10-19T10:05:47;16.10;99.90
2663;DHT22;49701;48.072;7.800;2022-10-19T10:08:14;16.10;99.90
2663;DHT22;49701;48.072;7.800;2022-10-19T10:10:47;16.10;99.90
2663;DHT22;49701;48.072;7.800;2022-10-19T10:13:18;16.10;99.90
2663;DHT22;49701;48.072;7.800;2022-10-19T10:15:46;16.10;99.90
2663;DHT22;49701;48.072;7.800;2022-10-19T10:18:13;16.00;99.90
2663;DHT22;49701;48.072;7.800;2022-10-19T10:20:41;16.10;99.90
2663;DHT22;49701;48.072;7.800;2022-10-19T10:23:21;16.10;99.90
2663;DHT22;49701;48.072;7.800;2022-10-19T10:25:47;16.10;99.90
2663;DHT22;49701;48.072;7.800;2022-10-19T10:28:47;16.30;99.90
2663;DHT22;49701;48.072;7.800;2022-10-19T10:31:05;16.30;99.90
2663;DHT22;49701;48.072;7.800;2022-10-19T10:33:32;16.40;99.90
2663;DHT22;49701;48.072;7.800;2022-10-19T10:36:00;16.50;99.90
2663;DHT22;49701;48.072;7.800;2022-10-19T10:38:27;16.50;99.90
2663;DHT22;49701;48.072;7.800;2022-10-19T10:41:04;16.60;99.90
2663;DHT22;49701;48.072;7.800;2022-10-19T10:43:32;16.60;99.90
2663;DHT22;49701;48.072;7.800;2022-10-19T10:46:03;16.60;99.90
2663;DHT22;49701;48.072;7.800;2022-10-19T10:48:30;16.70;99.90
2663;DHT22;49701;48.072;7.800;2022-10-19T10:50:56;16.70;99.90
2663;DHT22;49701;48.072;7.800;2022-10-19T10:53:29;16.70;99.90
2663;DHT22;49701;48.072;7.800;2022-10-19T10:55:55;16.70;99.90
2663;DHT22;49701;48.072;7.800;2022-10-19T10:58:41;16.80;99.90
2663;DHT22;49701;48.072;7.800;2022-10-19T11:01:12;16.80;99.90
2663;DHT22;49701;48.072;7.800;2022-10-19T11:03:47;16.70;99.90
2663;DHT22;49701;48.072;7.800;2022-10-19T11:06:13;16.70;99.90
2663;DHT22;49701;48.072;7.800;2022-10-19T11:11:23;16.70;99.90
2663;DHT22;49701;48.072;7.800;2022-10-19T11:13:55;16.70;99.90
2663;DHT22;49701;48.072;7.800;2022-10-19T11:16:25;16.60;99.90
2663;DHT22;49701;48.072;7.800;2022-10-19T11:18:54;16.60;99.90
2663;DHT22;49701;48.072;7.800;2022-10-19T11:31:32;16.70;99.90
2663;DHT22;49701;48.072;7.800;2022-10-19T11:34:14;16.80;99.90
2663;DHT22;49701;48.072;7.800;2022-10-19T11:36:45;16.80;99.90
2663;DHT22;49701;48.072;7.800;2022-10-19T11:39:34;16.90;99.90
2663;DHT22;49701;48.072;7.800;2022-10-19T11:45:03;17.00;99.90
2663;DHT22;49701;48.072;7.800;2022-10-19T11:57:59;17.40;99.90
2663;DHT22;49701;48.072;7.800;2022-10-19T12:00:29;17.50;99.90
2663;DHT22;49701;48.072;7.800;2022-10-19T12:05:30;17.50;99.90
2663;DHT22;49701;48.072;7.800;2022-10-19T12:13:18;17.60;99.90
2663;DHT22;49701;48.072;7.800;2022-10-19T12:15:48;17.60;99.90
2663;DHT22;49701;48.072;7.800;2022-10-19T12:18:27;17.70;99.90
2663;DHT22;49701;48.072;7.800;2022-10-19T12:20:55;17.70;99.90
2663;DHT22;49701;48.072;7.800;2022-10-19T12:23:23;17.70;99.90
2663;DHT22;49701;48.072;7.800;2022-10-19T12:25:50;17.80;99.90
2663;DHT22;49701;48.072;7.800;2022-10-19T12:28:21;17.80;99.90
2663;DHT22;49701;48.072;7.800;2022-10-19T12:30:49;17.80;99.90
2663;DHT22;49701;48.072;7.800;2022-10-19T12:33:26;17.80;99.90
2663;DHT22;49701;48.072;7.800;2022-10-19T12:38:40;17.80;99.90
2663;DHT22;49701;48.072;7.800;2022-10-19T12:43:55;17.90;99.90
2663;DHT22;49701;48.072;7.800;2022-10-19T12:46:30;17.90;99.90
2663;DHT22;49701;48.072;7.800;2022-10-19T12:51:43;17.90;99.90
2663;DHT22;49701;48.072;7.800;2022-10-19T12:54:09;17.90;99.90
2663;DHT22;49701;48.072;7.800;2022-10-19T12:56:49;17.80;99.90
2663;DHT22;49701;48.072;7.800;2022-10-19T12:59:21;17.70;99.90
2663;DHT22;49701;48.072;7.800;2022-10-19T13:01:48;17.70;99.90
2663;DHT22;49701;48.072;7.800;2022-10-19T13:04:23;17.70;99.90
2663;DHT22;49701;48.072;7.800;2022-10-19T13:06:57;17.70;99.90
2663;DHT22;49701;48.072;7.800;2022-10-19T13:17:08;17.80;99.90
2663;DHT22;49701;48.072;7.800;2022-10-19T13:19:34;17.80;99.90
2663;DHT22;49701;48.072;7.800;2022-10-19T13:34:47;18.00;99.90
2663;DHT22;49701;48.072;7.800;2022-10-19T13:37:20;18.00;99.90
2663;DHT22;49701;48.072;7.800;2022-10-19T13:39:46;18.10;99.90
2663;DHT22;49701;48.072;7.800;2022-10-19T13:42:21;18.10;99.90
2663;DHT22;49701;48.072;7.800;2022-10-19T13:44:47;18.10;99.90
2663;DHT22;49701;48.072;7.800;2022-10-19T13:49:51;18.20;99.90
2663;DHT22;49701;48.072;7.800;2022-10-19T14:00:22;18.10;99.90
2663;DHT22;49701;48.072;7.800;2022-10-19T14:02:53;18.10;99.90
2663;DHT22;49701;48.072;7.800;2022-10-19T14:05:29;18.10;99.90
2663;DHT22;49701;48.072;7.800;2022-10-19T14:08:10;18.10;99.90
2663;DHT22;49701;48.072;7.800;2022-10-19T14:10:39;18.10;99.90
2663;DHT22;49701;48.072;7.800;2022-10-19T14:13:05;18.20;99.90
2663;DHT22;49701;48.072;7.800;2022-10-19T14:15:36;18.40;99.90
2663;DHT22;49701;48.072;7.800;2022-10-19T14:18:01;18.40;99.90
2663;DHT22;49701;48.072;7.800;2022-10-19T14:20:29;18.60;99.90
2663;DHT22;49701;48.072;7.800;2022-10-19T14:22:55;18.60;99.90
2663;DHT22;49701;48.072;7.800;2022-10-19T14:25:25;18.60;99.90
2663;DHT22;49701;48.072;7.800;2022-10-19T14:27:58;18.70;99.90
2663;DHT22;49701;48.072;7.800;2022-10-19T14:30:29;18.60;99.90
2663;DHT22;49701;48.072;7.800;2022-10-19T14:32:56;18.70;99.90
2663;DHT22;49701;48.072;7.800;2022-10-19T14:35:23;18.60;99.90
2663;DHT22;49701;48.072;7.800;2022-10-19T14:37:51;18.60;99.90
2663;DHT22;49701;48.072;7.800;2022-10-19T14:42:45;18.60;99.90
2663;DHT22;49701;48.072;7.800;2022-10-19T14:45:15;18.60;99.90
2663;DHT22;49701;48.072;7.800;2022-10-19T14:47:49;18.50;99.90
2663;DHT22;49701;48.072;7.800;2022-10-19T14:50:15;18.40;99.90
2663;DHT22;49701;48.072;7.800;2022-10-19T14:52:41;18.40;99.90
2663;DHT22;49701;48.072;7.800;2022-10-19T14:55:08;18.40;99.90
2663;DHT22;49701;48.072;7.800;2022-10-19T14:57:38;18.30;99.90
2663;DHT22;49701;48.072;7.800;2022-10-19T15:00:05;18.30;99.90
2663;DHT22;49701;48.072;7.800;2022-10-19T15:02:37;18.30;99.90
2663;DHT22;49701;48.072;7.800;2022-10-19T15:05:04;18.20;99.90
2663;DHT22;49701;48.072;7.800;2022-10-19T15:07:37;18.20;99.90
2663;DHT22;49701;48.072;7.800;2022-10-19T15:10:07;18.00;99.90
2663;DHT22;49701;48.072;7.800;2022-10-19T15:12:34;18.00;99.90
2663;DHT22;49701;48.072;7.800;2022-10-19T15:15:05;17.90;99.90
2663;DHT22;49701;48.072;7.800;2022-10-19T15:17:31;17.80;99.90
2663;DHT22;49701;48.072;7.800;2022-10-19T15:19:58;17.70;99.90
2663;DHT22;49701;48.072;7.800;2022-10-19T15:27:21;17.50;99.90
2663;DHT22;49701;48.072;7.800;2022-10-19T15:30:00;17.50;99.90
2663;DHT22;49701;48.072;7.800;2022-10-19T15:32:45;17.50;99.90
2663;DHT22;49701;48.072;7.800;2022-10-19T15:35:14;17.40;99.90
2663;DHT22;49701;48.072;7.800;2022-10-19T15:37:42;17.30;99.90
2663;DHT22;49701;48.072;7.800;2022-10-19T15:40:12;17.40;99.90
2663;DHT22;49701;48.072;7.800;2022-10-19T15:42:42;17.30;99.90
2663;DHT22;49701;48.072;7.800;2022-10-19T15:48:13;17.40;99.90
2663;DHT22;49701;48.072;7.800;2022-10-19T15:50:41;17.40;99.90
2663;DHT22;49701;48.072;7.800;2022-10-19T15:53:07;17.40;99.90
2663;DHT22;49701;48.072;7.800;2022-10-19T15:55:32;17.40;99.90
2663;DHT22;49701;48.072;7.800;2022-10-19T15:57:58;17.40;99.90
2663;DHT22;49701;48.072;7.800;2022-10-19T16:00:28;17.40;99.90
2663;DHT22;49701;48.072;7.800;2022-10-19T16:02:53;17.40;99.90
2663;DHT22;49701;48.072;7.800;2022-10-19T16:05:19;17.30;99.90
2663;DHT22;49701;48.072;7.800;2022-10-19T16:07:44;17.30;99.90
2663;DHT22;49701;48.072;7.800;2022-10-19T16:10:14;17.20;99.90
2663;DHT22;49701;48.072;7.800;2022-10-19T16:12:40;17.20;99.90
2663;DHT22;49701;48.072;7.800;2022-10-19T16:15:06;17.10;99.90
2663;DHT22;49701;48.072;7.800;2022-10-19T16:17:31;17.10;99.90
2663;DHT22;49701;48.072;7.800;2022-10-19T16:19:57;17.10;99.90
2663;DHT22;49701;48.072;7.800;2022-10-19T16:22:22;17.10;99.90
2663;DHT22;49701;48.072;7.800;2022-10-19T16:24:48;17.00;99.90
2663;DHT22;49701;48.072;7.800;2022-10-19T16:27:13;16.90;99.90
2663;DHT22;49701;48.072;7.800;2022-10-19T16:29:40;17.00;99.90
2663;DHT22;49701;48.072;7.800;2022-10-19T16:32:06;16.90;99.90
2663;DHT22;49701;48.072;7.800;2022-10-19T16:34:32;16.90;99.90
2663;DHT22;49701;48.072;7.800;2022-10-19T16:36:57;16.90;99.90
2663;DHT22;49701;48.072;7.800;2022-10-19T16:39:23;16.90;99.90
2663;DHT22;49701;48.072;7.800;2022-10-19T16:41:49;16.90;99.90
2663;DHT22;49701;48.072;7.800;2022-10-19T16:44:15;16.80;99.90
2663;DHT22;49701;48.072;7.800;2022-10-19T16:46:41;16.80;99.90
2663;DHT22;49701;48.072;7.800;2022-10-19T16:49:06;16.80;99.90
2663;DHT22;49701;48.072;7.800;2022-10-19T16:51:33;16.80;99.90
2663;DHT22;49701;48.072;7.800;2022-10-19T16:53:59;16.90;99.90
2663;DHT22;49701;48.072;7.800;2022-10-19T16:56:25;16.80;99.90
2663;DHT22;49701;48.072;7.800;2022-10-19T16:58:52;16.80;99.90
2663;DHT22;49701;48.072;7.800;2022-10-19T17:01:17;16.80;99.90
2663;DHT22;49701;48.072;7.800;2022-10-19T17:03:43;16.70;99.90
2663;DHT22;49701;48.072;7.800;2022-10-19T17:06:10;16.70;99.90
2663;DHT22;49701;48.072;7.800;2022-10-19T17:08:35;16.80;99.90
2663;DHT22;49701;48.072;7.800;2022-10-19T17:11:20;16.70;99.90
2663;DHT22;49701;48.072;7.800;2022-10-19T17:13:47;16.80;99.90
2663;DHT22;49701;48.072;7.800;2022-10-19T17:16:13;16.80;99.90
2663;DHT22;49701;48.072;7.800;2022-10-19T17:18:39;16.80;99.90
2663;DHT22;49701;48.072;7.800;2022-10-19T17:21:06;16.90;99.90
2663;DHT22;49701;48.072;7.800;2022-10-19T17:23:32;16.90;99.90
2663;DHT22;49701;48.072;7.800;2022-10-19T17:25:58;17.00;99.90
2663;DHT22;49701;48.072;7.800;2022-10-19T17:28:23;17.00;99.90
2663;DHT22;49701;48.072;7.800;2022-10-19T17:30:50;17.00;99.90
2663;DHT22;49701;48.072;7.800;2022-10-19T17:33:17;17.00;99.90
2663;DHT22;49701;48.072;7.800;2022-10-19T17:35:43;17.00;99.90
2663;DHT22;49701;48.072;7.800;2022-10-19T17:38:09;16.90;99.90
2663;DHT22;49701;48.072;7.800;2022-10-19T17:40:34;16.90;99.90
2663;DHT22;49701;48.072;7.800;2022-10-19T17:43:00;16.90;99.90
2663;DHT22;49701;48.072;7.800;2022-10-19T17:45:25;17.00;99.90
2663;DHT22;49701;48.072;7.800;2022-10-19T17:47:51;16.90;99.90
2663;DHT22;49701;48.072;7.800;2022-10-19T17:50:16;17.00;99.90
2663;DHT22;49701;48.072;7.800;2022-10-19T17:52:42;16.90;99.90